sensor_id;sensor_type;location;lat;lon;timestamp;temperature;humidity
9640;DHT22;51745;50.872;4.732;2023-05-19T00:02:16;8.80;99.90
9640;DHT22;51745;50.872;4.732;2023-05-19T00:05:08;8.80;99.90
9640;DHT22;51745;50.872;4.732;2023-05-19T00:07:57;8.70;99.90
9640;DHT22;51745;50.872;4.732;2023-05-19T00:10:46;8.70;99.90
9640;DHT22;51745;50.872;4.732;2023-05-19T00:13:34;8.60;99.90
9640;DHT22;51745;50.872;4.732;2023-05-19T00:16:22;8.80;99.90
9640;DHT22;51745;50.872;4.732;2023-05-19T00:19:10;8.60;99.90
9640;DHT22;51745;50.872;4.732;2023-05-19T00:22:00;8.60;99.90
9640;DHT22;51745;50.872;4.732;2023-05-19T00:24:47;8.60;99.90
9640;DHT22;51745;50.872;4.732;2023-05-19T00:27:35;8.50;99.90
9640;DHT22;51745;50.872;4.732;2023-05-19T00:30:23;8.50;99.90
9640;DHT22;51745;50.872;4.732;2023-05-19T00:33:10;8.50;99.90
9640;DHT22;51745;50.872;4.732;2023-05-19T00:35:58;8.40;99.90
9640;DHT22;51745;50.872;4.732;2023-05-19T00:38:49;8.40;99.90
9640;DHT22;51745;50.872;4.732;2023-05-19T00:41:36;8.40;99.90
9640;DHT22;51745;50.872;4.732;2023-05-19T00:44:24;8.30;99.90
9640;DHT22;51745;50.872;4.732;2023-05-19T00:47:11;8.30;99.90
9640;DHT22;51745;50.872;4.732;2023-05-19T00:49:59;8.20;99.90
9640;DHT22;51745;50.872;4.732;2023-05-19T00:52:46;8.30;99.90
9640;DHT22;51745;50.872;4.732;2023-05-19T00:55:35;8.20;99.90
9640;DHT22;51745;50.872;4.732;2023-05-19T00:58:25;8.10;99.90
9640;DHT22;51745;50.872;4.732;2023-05-19T01:01:14;8.00;99.90
9640;DHT22;51745;50.872;4.732;2023-05-19T01:04:02;8.00;99.90
9640;DHT22;51745;50.872;4.732;2023-05-19T01:06:50;8.00;99.90
9640;DHT22;51745;50.872;4.732;2023-05-19T01:09:40;7.90;99.90
9640;DHT22;51745;50.872;4.732;2023-05-19T01:12:29;7.90;99.90
9640;DHT22;51745;50.872;4.732;2023-05-19T01:15:16;7.80;99.90
9640;DHT22;51745;50.872;4.732;2023-05-19T01:18:05;7.80;99.90
9640;DHT22;51745;50.872;4.732;2023-05-19T01:20:57;7.80;99.90
9640;DHT22;51745;50.872;4.732;2023-05-19T01:23:51;7.70;99.90
9640;DHT22;51745;50.872;4.732;2023-05-19T01:26:48;7.70;99.90
9640;DHT22;51745;50.872;4.732;2023-05-19T01:29:50;7.70;99.90
9640;DHT22;51745;50.872;4.732;2023-05-19T01:32:46;7.70;99.90
9640;DHT22;51745;50.872;4.732;2023-05-19T01:35:34;7.70;99.90
9640;DHT22;51745;50.872;4.732;2023-05-19T01:38:22;7.60;99.90
9640;DHT22;51745;50.872;4.732;2023-05-19T01:41:11;7.60;99.90
9640;DHT22;51745;50.872;4.732;2023-05-19T01:43:58;7.60;99.90
9640;DHT22;51745;50.872;4.732;2023-05-19T01:46:46;7.50;99.90
9640;DHT22;51745;50.872;4.732;2023-05-19T01:49:35;7.50;99.90
9640;DHT22;51745;50.872;4.732;2023-05-19T01:52:24;8.00;99.90
9640;DHT22;51745;50.872;4.732;2023-05-19T01:55:11;7.50;99.90
9640;DHT22;51745;50.872;4.732;2023-05-19T01:58:01;7.50;99.90
9640;DHT22;51745;50.872;4.732;2023-05-19T02:00:52;7.50;99.90
9640;DHT22;51745;50.872;4.732;2023-05-19T02:03:42;7.40;99.90
9640;DHT22;51745;50.872;4.732;2023-05-19T02:06:39;7.40;99.90
9640;DHT22;51745;50.872;4.732;2023-05-19T02:09:33;7.30;99.90
9640;DHT22;51745;50.872;4.732;2023-05-19T02:12:26;7.30;99.90
9640;DHT22;51745;50.872;4.732;2023-05-19T02:15:14;7.30;99.90
9640;DHT22;51745;50.872;4.732;2023-05-19T02:18:02;7.20;99.90
9640;DHT22;51745;50.872;4.732;2023-05-19T02:20:50;7.20;99.90
9640;DHT22;51745;50.872;4.732;2023-05-19T02:23:39;7.20;99.90
9640;DHT22;51745;50.872;4.732;2023-05-19T02:26:27;7.10;99.90
9640;DHT22;51745;50.872;4.732;2023-05-19T02:29:14;7.10;99.90
9640;DHT22;51745;50.872;4.732;2023-05-19T02:32:02;7.10;99.90
9640;DHT22;51745;50.872;4.732;2023-05-19T02:34:50;7.10;99.90
9640;DHT22;51745;50.872;4.732;2023-05-19T02:37:38;7.00;99.90
9640;DHT22;51745;50.872;4.732;2023-05-19T02:40:27;7.00;99.90
9640;DHT22;51745;50.872;4.732;2023-05-19T02:43:15;7.00;99.90
9640;DHT22;51745;50.872;4.732;2023-05-19T02:46:03;6.90;99.90
9640;DHT22;51745;50.872;4.732;2023-05-19T02:48:51;6.90;99.90
9640;DHT22;51745;50.872;4.732;2023-05-19T02:51:39;6.90;99.90
9640;DHT22;51745;50.872;4.732;2023-05-19T02:54:26;6.90;99.90
9640;DHT22;51745;50.872;4.732;2023-05-19T02:57:15;6.80;99.90
9640;DHT22;51745;50.872;4.732;2023-05-19T03:00:03;6.80;99.90
9640;DHT22;51745;50.872;4.732;2023-05-19T03:02:50;6.70;99.90
9640;DHT22;51745;50.872;4.732;2023-05-19T03:05:40;6.70;99.90
9640;DHT22;51745;50.872;4.732;2023-05-19T03:08:27;6.70;99.90
9640;DHT22;51745;50.872;4.732;2023-05-19T03:11:15;6.70;99.90
9640;DHT22;51745;50.872;4.732;2023-05-19T03:14:07;6.70;99.90
9640;DHT22;51745;50.872;4.732;2023-05-19T03:16:55;6.60;99.90
9640;DHT22;51745;50.872;4.732;2023-05-19T03:19:43;6.60;99.90
9640;DHT22;51745;50.872;4.732;2023-05-19T03:22:31;6.50;99.90
9640;DHT22;51745;50.872;4.732;2023-05-19T03:25:19;6.50;99.90
9640;DHT22;51745;50.872;4.732;2023-05-19T03:28:06;6.40;99.90
9640;DHT22;51745;50.872;4.732;2023-05-19T03:30:55;6.40;99.90
9640;DHT22;51745;50.872;4.732;2023-05-19T03:33:46;6.40;99.90
9640;DHT22;51745;50.872;4.732;2023-05-19T03:36:34;6.50;99.90
9640;DHT22;51745;50.872;4.732;2023-05-19T03:39:28;6.30;99.90
9640;DHT22;51745;50.872;4.732;2023-05-19T03:42:15;6.30;99.90
9640;DHT22;51745;50.872;4.732;2023-05-19T03:45:03;6.30;99.90
9640;DHT22;51745;50.872;4.732;2023-05-19T03:47:52;6.30;99.90
9640;DHT22;51745;50.872;4.732;2023-05-19T03:51:15;6.30;99.90
9640;DHT22;51745;50.872;4.732;2023-05-19T03:54:04;6.10;99.90
9640;DHT22;51745;50.872;4.732;2023-05-19T03:56:52;6.40;99.90
9640;DHT22;51745;50.872;4.732;2023-05-19T03:59:40;6.40;99.90
9640;DHT22;51745;50.872;4.732;2023-05-19T04:02:28;6.40;99.90
9640;DHT22;51745;50.872;4.732;2023-05-19T04:05:18;6.20;99.90
9640;DHT22;51745;50.872;4.732;2023-05-19T04:08:05;6.50;99.90
9640;DHT22;51745;50.872;4.732;2023-05-19T04:10:53;6.60;99.90
9640;DHT22;51745;50.872;4.732;2023-05-19T04:13:40;7.00;99.90
9640;DHT22;51745;50.872;4.732;2023-05-19T04:16:30;9.30;99.90
9640;DHT22;51745;50.872;4.732;2023-05-19T04:19:17;6.60;99.90
9640;DHT22;51745;50.872;4.732;2023-05-19T04:22:07;6.60;99.90
9640;DHT22;51745;50.872;4.732;2023-05-19T04:24:54;6.70;99.90
9640;DHT22;51745;50.872;4.732;2023-05-19T04:27:42;6.70;99.90
9640;DHT22;51745;50.872;4.732;2023-05-19T04:30:29;6.60;99.90
9640;DHT22;51745;50.872;4.732;2023-05-19T04:33:17;6.60;99.90
9640;DHT22;51745;50.872;4.732;2023-05-19T04:36:07;6.60;99.90
9640;DHT22;51745;50.872;4.732;2023-05-19T04:38:59;6.60;99.90
9640;DHT22;51745;50.872;4.732;2023-05-19T04:41:51;6.60;99.90
9640;DHT22;51745;50.872;4.732;2023-05-19T04:44:38;6.70;99.90
9640;DHT22;51745;50.872;4.732;2023-05-19T04:47:26;6.70;99.90
9640;DHT22;51745;50.872;4.732;2023-05-19T04:50:15;6.70;99.90
9640;DHT22;51745;50.872;4.732;2023-05-19T04:53:03;6.80;99.90
9640;DHT22;51745;50.872;4.732;2023-05-19T04:55:52;6.80;99.90
9640;DHT22;51745;50.872;4.732;2023-05-19T04:58:40;6.80;99.90
9640;DHT22;51745;50.872;4.732;2023-05-19T05:01:30;6.90;99.90
9640;DHT22;51745;50.872;4.732;2023-05-19T05:04:18;6.90;99.90
9640;DHT22;51745;50.872;4.732;2023-05-19T05:07:07;6.90;99.90
9640;DHT22;51745;50.872;4.732;2023-05-19T05:09:56;7.00;99.90
9640;DHT22;51745;50.872;4.732;2023-05-19T05:12:46;7.10;99.90
9640;DHT22;51745;50.872;4.732;2023-05-19T05:15:34;8.20;99.90
9640;DHT22;51745;50.872;4.732;2023-05-19T05:18:21;7.10;99.90
9640;DHT22;51745;50.872;4.732;2023-05-19T05:21:09;7.30;99.90
9640;DHT22;51745;50.872;4.732;2023-05-19T05:23:58;7.40;99.90
9640;DHT22;51745;50.872;4.732;2023-05-19T05:26:49;7.50;99.90
9640;DHT22;51745;50.872;4.732;2023-05-19T05:29:38;6.80;99.90
9640;DHT22;51745;50.872;4.732;2023-05-19T05:32:27;7.80;99.90
9640;DHT22;51745;50.872;4.732;2023-05-19T05:35:15;7.80;99.90
9640;DHT22;51745;50.872;4.732;2023-05-19T05:38:03;7.90;99.90
9640;DHT22;51745;50.872;4.732;2023-05-19T05:40:52;7.90;99.90
9640;DHT22;51745;50.872;4.732;2023-05-19T05:43:40;8.00;99.90
9640;DHT22;51745;50.872;4.732;2023-05-19T05:46:30;8.10;99.90
9640;DHT22;51745;50.872;4.732;2023-05-19T05:49:19;8.20;99.90
9640;DHT22;51745;50.872;4.732;2023-05-19T05:52:07;8.30;99.90
9640;DHT22;51745;50.872;4.732;2023-05-19T05:55:02;8.40;99.90
9640;DHT22;51745;50.872;4.732;2023-05-19T05:57:51;8.50;99.90
9640;DHT22;51745;50.872;4.732;2023-05-19T06:00:38;7.10;99.90
9640;DHT22;51745;50.872;4.732;2023-05-19T06:03:29;8.70;99.90
9640;DHT22;51745;50.872;4.732;2023-05-19T06:06:22;8.70;99.90
9640;DHT22;51745;50.872;4.732;2023-05-19T06:09:10;8.70;99.90
9640;DHT22;51745;50.872;4.732;2023-05-19T06:11:58;9.10;99.90
9640;DHT22;51745;50.872;4.732;2023-05-19T06:14:51;9.30;99.90
9640;DHT22;51745;50.872;4.732;2023-05-19T06:18:00;9.40;99.90
9640;DHT22;51745;50.872;4.732;2023-05-19T06:20:49;9.60;99.90
9640;DHT22;51745;50.872;4.732;2023-05-19T06:23:37;9.70;99.90
9640;DHT22;51745;50.872;4.732;2023-05-19T06:26:27;9.70;99.90
9640;DHT22;51745;50.872;4.732;2023-05-19T06:29:15;9.70;99.90
9640;DHT22;51745;50.872;4.732;2023-05-19T06:32:03;9.70;99.90
9640;DHT22;51745;50.872;4.732;2023-05-19T06:34:51;9.70;99.90
9640;DHT22;51745;50.872;4.732;2023-05-19T06:37:41;9.70;99.90
9640;DHT22;51745;50.872;4.732;2023-05-19T06:40:31;9.80;99.90
9640;DHT22;51745;50.872;4.732;2023-05-19T06:43:19;9.90;99.90
9640;DHT22;51745;50.872;4.732;2023-05-19T06:46:14;9.80;99.90
9640;DHT22;51745;50.872;4.732;2023-05-19T06:49:02;9.80;99.90
9640;DHT22;51745;50.872;4.732;2023-05-19T06:51:55;9.80;99.90
9640;DHT22;51745;50.872;4.732;2023-05-19T06:54:44;9.90;99.90
9640;DHT22;51745;50.872;4.732;2023-05-19T06:57:32;10.10;99.90
9640;DHT22;51745;50.872;4.732;2023-05-19T07:00:20;10.90;99.90
9640;DHT22;51745;50.872;4.732;2023-05-19T07:03:11;10.20;99.90
9640;DHT22;51745;50.872;4.732;2023-05-19T07:05:58;10.30;99.90
9640;DHT22;51745;50.872;4.732;2023-05-19T07:08:46;10.40;99.90
9640;DHT22;51745;50.872;4.732;2023-05-19T07:11:37;10.40;99.90
9640;DHT22;51745;50.872;4.732;2023-05-19T07:14:25;10.50;99.90
9640;DHT22;51745;50.872;4.732;2023-05-19T07:17:15;10.70;99.90
9640;DHT22;51745;50.872;4.732;2023-05-19T07:20:04;10.80;99.90
9640;DHT22;51745;50.872;4.732;2023-05-19T07:22:55;10.90;99.90
9640;DHT22;51745;50.872;4.732;2023-05-19T07:25:42;11.00;99.90
9640;DHT22;51745;50.872;4.732;2023-05-19T07:28:32;11.10;99.90
9640;DHT22;51745;50.872;4.732;2023-05-19T07:31:20;11.30;99.90
9640;DHT22;51745;50.872;4.732;2023-05-19T07:34:08;11.20;99.90
9640;DHT22;51745;50.872;4.732;2023-05-19T07:36:56;11.40;99.90
9640;DHT22;51745;50.872;4.732;2023-05-19T07:39:44;11.50;99.90
9640;DHT22;51745;50.872;4.732;2023-05-19T07:42:31;11.80;99.90
9640;DHT22;51745;50.872;4.732;2023-05-19T07:45:20;11.90;99.90
9640;DHT22;51745;50.872;4.732;2023-05-19T07:48:08;9.50;99.90
9640;DHT22;51745;50.872;4.732;2023-05-19T07:50:56;12.20;99.90
9640;DHT22;51745;50.872;4.732;2023-05-19T07:53:44;12.20;99.90
9640;DHT22;51745;50.872;4.732;2023-05-19T07:56:33;12.40;99.90
9640;DHT22;51745;50.872;4.732;2023-05-19T07:59:20;12.50;99.90
9640;DHT22;51745;50.872;4.732;2023-05-19T08:02:10;12.60;99.90
9640;DHT22;51745;50.872;4.732;2023-05-19T08:04:58;14.50;99.90
9640;DHT22;51745;50.872;4.732;2023-05-19T08:07:47;12.90;99.90
9640;DHT22;51745;50.872;4.732;2023-05-19T08:10:35;13.00;99.90
9640;DHT22;51745;50.872;4.732;2023-05-19T08:13:22;13.10;99.90
9640;DHT22;51745;50.872;4.732;2023-05-19T08:16:10;13.30;99.90
9640;DHT22;51745;50.872;4.732;2023-05-19T08:18:59;13.30;99.90
9640;DHT22;51745;50.872;4.732;2023-05-19T08:21:50;13.20;99.90
9640;DHT22;51745;50.872;4.732;2023-05-19T08:24:38;13.20;99.90
9640;DHT22;51745;50.872;4.732;2023-05-19T08:27:31;13.30;99.90
9640;DHT22;51745;50.872;4.732;2023-05-19T08:30:19;13.40;99.90
9640;DHT22;51745;50.872;4.732;2023-05-19T08:33:06;13.70;99.90
9640;DHT22;51745;50.872;4.732;2023-05-19T08:35:56;13.80;99.90
9640;DHT22;51745;50.872;4.732;2023-05-19T08:38:44;14.00;99.90
9640;DHT22;51745;50.872;4.732;2023-05-19T08:41:32;14.00;99.90
9640;DHT22;51745;50.872;4.732;2023-05-19T08:44:20;14.20;99.90
9640;DHT22;51745;50.872;4.732;2023-05-19T08:47:08;14.20;99.90
9640;DHT22;51745;50.872;4.732;2023-05-19T08:50:00;14.20;99.90
9640;DHT22;51745;50.872;4.732;2023-05-19T08:52:51;14.20;99.90
9640;DHT22;51745;50.872;4.732;2023-05-19T08:55:40;14.40;99.90
9640;DHT22;51745;50.872;4.732;2023-05-19T08:58:30;14.60;99.90
9640;DHT22;51745;50.872;4.732;2023-05-19T09:01:18;14.70;99.90
9640;DHT22;51745;50.872;4.732;2023-05-19T09:04:07;14.60;99.90
9640;DHT22;51745;50.872;4.732;2023-05-19T09:06:56;14.80;99.90
9640;DHT22;51745;50.872;4.732;2023-05-19T09:09:49;14.90;99.90
9640;DHT22;51745;50.872;4.732;2023-05-19T09:12:36;14.90;99.90
9640;DHT22;51745;50.872;4.732;2023-05-19T09:15:25;15.20;99.90
9640;DHT22;51745;50.872;4.732;2023-05-19T09:18:16;14.90;99.90
9640;DHT22;51745;50.872;4.732;2023-05-19T09:21:04;15.00;99.90
9640;DHT22;51745;50.872;4.732;2023-05-19T09:23:52;15.20;99.90
9640;DHT22;51745;50.872;4.732;2023-05-19T09:26:43;15.40;99.90
9640;DHT22;51745;50.872;4.732;2023-05-19T09:29:33;15.60;99.90
9640;DHT22;51745;50.872;4.732;2023-05-19T09:32:24;15.60;99.90
9640;DHT22;51745;50.872;4.732;2023-05-19T09:35:13;15.60;99.90
9640;DHT22;51745;50.872;4.732;2023-05-19T09:38:02;15.70;99.90
9640;DHT22;51745;50.872;4.732;2023-05-19T09:40:49;15.70;99.90
9640;DHT22;51745;50.872;4.732;2023-05-19T09:43:39;15.80;99.90
9640;DHT22;51745;50.872;4.732;2023-05-19T09:46:28;15.70;99.90
9640;DHT22;51745;50.872;4.732;2023-05-19T09:49:18;15.70;99.90
9640;DHT22;51745;50.872;4.732;2023-05-19T09:52:05;15.80;99.90
9640;DHT22;51745;50.872;4.732;2023-05-19T09:54:56;16.10;99.90
9640;DHT22;51745;50.872;4.732;2023-05-19T09:57:45;17.00;99.90
9640;DHT22;51745;50.872;4.732;2023-05-19T10:00:34;16.40;99.90
9640;DHT22;51745;50.872;4.732;2023-05-19T10:03:22;16.60;99.90
9640;DHT22;51745;50.872;4.732;2023-05-19T10:06:14;16.50;99.90
9640;DHT22;51745;50.872;4.732;2023-05-19T10:09:03;16.20;99.90
9640;DHT22;51745;50.872;4.732;2023-05-19T10:11:52;17.10;99.90
9640;DHT22;51745;50.872;4.732;2023-05-19T10:14:40;16.00;99.90
9640;DHT22;51745;50.872;4.732;2023-05-19T10:17:29;16.10;99.90
9640;DHT22;51745;50.872;4.732;2023-05-19T10:20:19;16.20;99.90
9640;DHT22;51745;50.872;4.732;2023-05-19T10:23:06;16.20;99.90
9640;DHT22;51745;50.872;4.732;2023-05-19T10:25:55;16.30;99.90
9640;DHT22;51745;50.872;4.732;2023-05-19T10:28:44;16.80;99.90
9640;DHT22;51745;50.872;4.732;2023-05-19T10:31:33;17.00;99.90
9640;DHT22;51745;50.872;4.732;2023-05-19T10:34:35;17.60;99.90
9640;DHT22;51745;50.872;4.732;2023-05-19T10:37:33;17.30;99.90
9640;DHT22;51745;50.872;4.732;2023-05-19T10:40:26;17.50;99.90
9640;DHT22;51745;50.872;4.732;2023-05-19T10:43:14;17.80;99.90
9640;DHT22;51745;50.872;4.732;2023-05-19T10:46:04;17.10;99.90
9640;DHT22;51745;50.872;4.732;2023-05-19T10:48:55;17.30;99.90
9640;DHT22;51745;50.872;4.732;2023-05-19T10:51:48;16.90;99.90
9640;DHT22;51745;50.872;4.732;2023-05-19T10:54:39;15.80;99.90
9640;DHT22;51745;50.872;4.732;2023-05-19T10:57:29;17.30;99.90
9640;DHT22;51745;50.872;4.732;2023-05-19T11:00:25;17.40;99.90
9640;DHT22;51745;50.872;4.732;2023-05-19T11:03:16;17.70;99.90
9640;DHT22;51745;50.872;4.732;2023-05-19T11:06:16;17.60;99.90
9640;DHT22;51745;50.872;4.732;2023-05-19T11:09:12;17.70;99.90
9640;DHT22;51745;50.872;4.732;2023-05-19T11:12:01;18.00;99.90
9640;DHT22;51745;50.872;4.732;2023-05-19T11:14:51;17.60;99.90
9640;DHT22;51745;50.872;4.732;2023-05-19T11:17:38;17.70;99.90
9640;DHT22;51745;50.872;4.732;2023-05-19T11:20:27;18.00;99.90
9640;DHT22;51745;50.872;4.732;2023-05-19T11:23:15;17.80;99.90
9640;DHT22;51745;50.872;4.732;2023-05-19T11:26:05;18.70;99.90
9640;DHT22;51745;50.872;4.732;2023-05-19T11:28:53;18.30;99.90
9640;DHT22;51745;50.872;4.732;2023-05-19T11:31:40;18.30;99.90
9640;DHT22;51745;50.872;4.732;2023-05-19T11:34:36;18.20;99.90
9640;DHT22;51745;50.872;4.732;2023-05-19T11:37:24;17.70;99.90
9640;DHT22;51745;50.872;4.732;2023-05-19T11:40:13;17.90;99.90
9640;DHT22;51745;50.872;4.732;2023-05-19T11:43:05;17.90;99.90
9640;DHT22;51745;50.872;4.732;2023-05-19T11:45:53;17.80;99.90
9640;DHT22;51745;50.872;4.732;2023-05-19T11:48:42;18.00;99.90
9640;DHT22;51745;50.872;4.732;2023-05-19T11:51:34;17.90;99.90
9640;DHT22;51745;50.872;4.732;2023-05-19T11:54:28;17.70;99.90
9640;DHT22;51745;50.872;4.732;2023-05-19T11:57:21;18.00;99.90
9640;DHT22;51745;50.872;4.732;2023-05-19T12:00:11;17.90;99.90
9640;DHT22;51745;50.872;4.732;2023-05-19T12:03:00;18.20;99.90
9640;DHT22;51745;50.872;4.732;2023-05-19T12:05:50;19.20;99.90
9640;DHT22;51745;50.872;4.732;2023-05-19T12:08:38;18.20;99.90
9640;DHT22;51745;50.872;4.732;2023-05-19T12:11:27;18.40;99.90
9640;DHT22;51745;50.872;4.732;2023-05-19T12:14:16;18.40;99.90
9640;DHT22;51745;50.872;4.732;2023-05-19T12:17:12;18.70;99.90
9640;DHT22;51745;50.872;4.732;2023-05-19T12:20:00;19.40;99.90
9640;DHT22;51745;50.872;4.732;2023-05-19T12:22:49;18.80;99.90
9640;DHT22;51745;50.872;4.732;2023-05-19T12:25:38;19.10;99.90
9640;DHT22;51745;50.872;4.732;2023-05-19T12:28:28;19.10;99.90
9640;DHT22;51745;50.872;4.732;2023-05-19T12:31:16;19.30;99.80
9640;DHT22;51745;50.872;4.732;2023-05-19T12:34:05;18.90;99.70
9640;DHT22;51745;50.872;4.732;2023-05-19T12:36:55;18.80;99.90
9640;DHT22;51745;50.872;4.732;2023-05-19T12:39:47;19.30;99.10
9640;DHT22;51745;50.872;4.732;2023-05-19T12:42:35;18.60;99.90
9640;DHT22;51745;50.872;4.732;2023-05-19T12:45:23;18.60;99.00
9640;DHT22;51745;50.872;4.732;2023-05-19T12:48:14;18.60;98.90
9640;DHT22;51745;50.872;4.732;2023-05-19T12:51:05;18.70;99.40
9640;DHT22;51745;50.872;4.732;2023-05-19T12:53:54;20.10;98.80
9640;DHT22;51745;50.872;4.732;2023-05-19T12:56:49;18.80;98.00
9640;DHT22;51745;50.872;4.732;2023-05-19T12:59:41;18.70;97.20
9640;DHT22;51745;50.872;4.732;2023-05-19T13:02:29;18.80;96.60
9640;DHT22;51745;50.872;4.732;2023-05-19T13:05:20;19.00;96.90
9640;DHT22;51745;50.872;4.732;2023-05-19T13:08:14;19.20;97.90
9640;DHT22;51745;50.872;4.732;2023-05-19T13:11:02;19.20;96.00
9640;DHT22;51745;50.872;4.732;2023-05-19T13:13:50;18.90;95.10
9640;DHT22;51745;50.872;4.732;2023-05-19T13:16:38;19.00;97.10
9640;DHT22;51745;50.872;4.732;2023-05-19T13:19:26;19.30;96.80
9640;DHT22;51745;50.872;4.732;2023-05-19T13:22:15;19.30;96.30
9640;DHT22;51745;50.872;4.732;2023-05-19T13:25:05;19.30;95.50
9640;DHT22;51745;50.872;4.732;2023-05-19T13:27:53;19.40;95.20
9640;DHT22;51745;50.872;4.732;2023-05-19T13:30:42;19.20;94.10
9640;DHT22;51745;50.872;4.732;2023-05-19T13:33:39;19.10;94.50
9640;DHT22;51745;50.872;4.732;2023-05-19T13:36:28;19.20;95.60
9640;DHT22;51745;50.872;4.732;2023-05-19T13:39:18;19.20;95.30
9640;DHT22;51745;50.872;4.732;2023-05-19T13:42:11;18.50;94.80
9640;DHT22;51745;50.872;4.732;2023-05-19T13:45:06;17.40;93.50
9640;DHT22;51745;50.872;4.732;2023-05-19T13:47:55;19.40;94.80
9640;DHT22;51745;50.872;4.732;2023-05-19T13:50:44;19.40;95.00
9640;DHT22;51745;50.872;4.732;2023-05-19T13:53:36;19.50;94.00
9640;DHT22;51745;50.872;4.732;2023-05-19T13:56:27;19.60;95.70
9640;DHT22;51745;50.872;4.732;2023-05-19T13:59:18;20.10;95.30
9640;DHT22;51745;50.872;4.732;2023-05-19T14:02:06;20.80;92.70
9640;DHT22;51745;50.872;4.732;2023-05-19T14:04:55;19.30;92.80
9640;DHT22;51745;50.872;4.732;2023-05-19T14:07:43;19.30;93.30
9640;DHT22;51745;50.872;4.732;2023-05-19T14:10:32;19.30;93.20
9640;DHT22;51745;50.872;4.732;2023-05-19T14:13:22;19.40;92.70
9640;DHT22;51745;50.872;4.732;2023-05-19T14:16:14;19.30;92.90
9640;DHT22;51745;50.872;4.732;2023-05-19T14:19:03;19.60;92.30
9640;DHT22;51745;50.872;4.732;2023-05-19T14:21:51;19.30;92.80
9640;DHT22;51745;50.872;4.732;2023-05-19T14:24:41;19.50;92.70
9640;DHT22;51745;50.872;4.732;2023-05-19T14:27:32;19.80;92.30
9640;DHT22;51745;50.872;4.732;2023-05-19T14:30:22;19.80;92.90
9640;DHT22;51745;50.872;4.732;2023-05-19T14:33:16;19.70;91.40
9640;DHT22;51745;50.872;4.732;2023-05-19T14:36:09;20.60;92.70
9640;DHT22;51745;50.872;4.732;2023-05-19T14:39:03;19.50;91.20
9640;DHT22;51745;50.872;4.732;2023-05-19T14:41:54;19.40;91.10
9640;DHT22;51745;50.872;4.732;2023-05-19T14:44:45;19.50;91.20
9640;DHT22;51745;50.872;4.732;2023-05-19T14:47:33;19.50;91.00
9640;DHT22;51745;50.872;4.732;2023-05-19T14:50:23;19.30;91.20
9640;DHT22;51745;50.872;4.732;2023-05-19T14:53:16;19.60;93.10
9640;DHT22;51745;50.872;4.732;2023-05-19T14:56:05;19.60;91.30
9640;DHT22;51745;50.872;4.732;2023-05-19T14:58:53;19.80;91.90
9640;DHT22;51745;50.872;4.732;2023-05-19T15:01:41;19.80;92.60
9640;DHT22;51745;50.872;4.732;2023-05-19T15:04:30;19.80;92.40
9640;DHT22;51745;50.872;4.732;2023-05-19T15:07:19;19.80;91.80
9640;DHT22;51745;50.872;4.732;2023-05-19T15:10:07;19.90;92.00
9640;DHT22;51745;50.872;4.732;2023-05-19T15:12:59;19.80;91.90
9640;DHT22;51745;50.872;4.732;2023-05-19T15:15:52;19.70;92.00
9640;DHT22;51745;50.872;4.732;2023-05-19T15:19:00;19.50;91.60
9640;DHT22;51745;50.872;4.732;2023-05-19T15:21:48;19.70;92.30
9640;DHT22;51745;50.872;4.732;2023-05-19T15:24:38;19.90;92.40
9640;DHT22;51745;50.872;4.732;2023-05-19T15:27:27;20.40;92.20
9640;DHT22;51745;50.872;4.732;2023-05-19T15:30:16;20.00;92.30
9640;DHT22;51745;50.872;4.732;2023-05-19T15:33:06;20.10;91.90
9640;DHT22;51745;50.872;4.732;2023-05-19T15:35:55;20.30;92.30
9640;DHT22;51745;50.872;4.732;2023-05-19T15:38:47;19.60;90.90
9640;DHT22;51745;50.872;4.732;2023-05-19T15:41:38;19.90;91.20
9640;DHT22;51745;50.872;4.732;2023-05-19T15:44:25;19.60;90.90
9640;DHT22;51745;50.872;4.732;2023-05-19T15:47:16;19.40;91.40
9640;DHT22;51745;50.872;4.732;2023-05-19T15:50:06;19.70;92.00
9640;DHT22;51745;50.872;4.732;2023-05-19T15:52:56;19.80;92.10
9640;DHT22;51745;50.872;4.732;2023-05-19T15:55:45;19.80;92.70
9640;DHT22;51745;50.872;4.732;2023-05-19T15:58:34;19.80;90.60
9640;DHT22;51745;50.872;4.732;2023-05-19T16:01:26;19.40;90.60
9640;DHT22;51745;50.872;4.732;2023-05-19T16:04:15;19.20;91.80
9640;DHT22;51745;50.872;4.732;2023-05-19T16:07:05;19.50;92.50
9640;DHT22;51745;50.872;4.732;2023-05-19T16:09:53;19.50;91.10
9640;DHT22;51745;50.872;4.732;2023-05-19T16:12:41;19.20;91.00
9640;DHT22;51745;50.872;4.732;2023-05-19T16:15:30;20.10;91.80
9640;DHT22;51745;50.872;4.732;2023-05-19T16:18:18;20.10;90.80
9640;DHT22;51745;50.872;4.732;2023-05-19T16:21:06;20.00;90.90
9640;DHT22;51745;50.872;4.732;2023-05-19T16:23:57;20.00;90.90
9640;DHT22;51745;50.872;4.732;2023-05-19T16:26:45;20.40;90.40
9640;DHT22;51745;50.872;4.732;2023-05-19T16:29:33;20.00;90.10
9640;DHT22;51745;50.872;4.732;2023-05-19T16:32:22;19.90;90.60
9640;DHT22;51745;50.872;4.732;2023-05-19T16:35:12;19.70;89.90
9640;DHT22;51745;50.872;4.732;2023-05-19T16:38:00;20.70;91.50
9640;DHT22;51745;50.872;4.732;2023-05-19T16:40:49;19.70;91.00
9640;DHT22;51745;50.872;4.732;2023-05-19T16:43:37;19.80;90.90
9640;DHT22;51745;50.872;4.732;2023-05-19T16:46:28;19.80;90.70
9640;DHT22;51745;50.872;4.732;2023-05-19T16:49:18;19.60;90.70
9640;DHT22;51745;50.872;4.732;2023-05-19T16:52:06;19.70;91.40
9640;DHT22;51745;50.872;4.732;2023-05-19T16:54:56;19.40;90.00
9640;DHT22;51745;50.872;4.732;2023-05-19T16:57:44;19.50;90.50
9640;DHT22;51745;50.872;4.732;2023-05-19T17:00:32;17.80;87.60
9640;DHT22;51745;50.872;4.732;2023-05-19T17:03:20;19.10;90.40
9640;DHT22;51745;50.872;4.732;2023-05-19T17:06:09;19.30;91.20
9640;DHT22;51745;50.872;4.732;2023-05-19T17:08:58;19.40;91.00
9640;DHT22;51745;50.872;4.732;2023-05-19T17:11:46;19.30;90.30
9640;DHT22;51745;50.872;4.732;2023-05-19T17:14:34;19.30;90.50
9640;DHT22;51745;50.872;4.732;2023-05-19T17:17:25;19.40;90.50
9640;DHT22;51745;50.872;4.732;2023-05-19T17:20:13;19.60;91.50
9640;DHT22;51745;50.872;4.732;2023-05-19T17:23:02;19.70;91.80
9640;DHT22;51745;50.872;4.732;2023-05-19T17:25:52;19.20;91.40
9640;DHT22;51745;50.872;4.732;2023-05-19T17:28:40;19.40;91.40
9640;DHT22;51745;50.872;4.732;2023-05-19T17:31:27;19.30;90.70
9640;DHT22;51745;50.872;4.732;2023-05-19T17:34:16;19.30;92.10
9640;DHT22;51745;50.872;4.732;2023-05-19T17:37:03;19.40;92.40
9640;DHT22;51745;50.872;4.732;2023-05-19T17:39:53;19.50;91.70
9640;DHT22;51745;50.872;4.732;2023-05-19T17:42:41;19.30;92.10
9640;DHT22;51745;50.872;4.732;2023-05-19T17:45:29;18.80;91.80
9640;DHT22;51745;50.872;4.732;2023-05-19T17:48:18;18.70;92.20
9640;DHT22;51745;50.872;4.732;2023-05-19T17:51:06;18.70;93.20
9640;DHT22;51745;50.872;4.732;2023-05-19T17:53:57;18.50;92.80
9640;DHT22;51745;50.872;4.732;2023-05-19T17:56:47;18.80;92.80
9640;DHT22;51745;50.872;4.732;2023-05-19T17:59:38;17.80;92.20
9640;DHT22;51745;50.872;4.732;2023-05-19T18:02:26;18.40;92.10
9640;DHT22;51745;50.872;4.732;2023-05-19T18:05:16;18.30;92.20
9640;DHT22;51745;50.872;4.732;2023-05-19T18:08:05;18.30;92.20
9640;DHT22;51745;50.872;4.732;2023-05-19T18:10:55;18.20;92.90
9640;DHT22;51745;50.872;4.732;2023-05-19T18:13:46;18.10;92.50
9640;DHT22;51745;50.872;4.732;2023-05-19T18:16:34;18.10;93.20